Cheyenne — WDE9553 — position and weather

sailwx.info

Track history (hours):
 
Tides and Currents Weather Stations Pressure Air Temp Water Temp Dewpoint Dewpoint Depression Visibility Wind Speed Wind Dir Waves Ship Positions

Cheyenne

Owner: DMC MARINE, LLC, HILLSIDE, NJ. More information available from US FCC via Universal Licensing System and Coast Guard Vessel Documentation Center.

Last reported at 2015-Feb-01 12:33 UTC. Time now 2015-Feb-01 13:15 UTC.
Position N 40°41' W 074°04'.

Length 29 m; draft 4 m.

Type: Towing. MMSI: 367418570.

Date/timePositionNaut miles runAvg speedWind from/ knotsBaromVisibWave heightAir tempDewpointWater temp
2015-Feb-01 12:33N 40°41' W 074°04'3 3.1
2015-Feb-01 11:33N 40°40' W 073°60'1 0.9
2015-Feb-01 10:33N 40°40' W 074°01'3 3.2
2015-Feb-01 09:33N 40°41' W 074°05'0 0.0
2015-Feb-01 08:31N 40°41' W 074°05'0 0.0
2015-Feb-01 07:30N 40°41' W 074°05'0 0.0
2015-Feb-01 06:33N 40°41' W 074°05'0 0.0
2015-Feb-01 05:33N 40°41' W 074°05'0 0.0
2015-Feb-01 04:33N 40°41' W 074°05'0 0.0
2015-Feb-01 03:33N 40°41' W 074°05'0 0.0
2015-Feb-01 02:33N 40°41' W 074°05'0 0.0
2015-Feb-01 01:27N 40°41' W 074°05'0 0.0
2015-Feb-01 00:33N 40°41' W 074°05'0 0.0
2015-Jan-31 23:33N 40°41' W 074°05'0 0.0
2015-Jan-31 22:33N 40°41' W 074°05'0 0.0
2015-Jan-31 21:33N 40°41' W 074°05'0 0.0
2015-Jan-31 20:33N 40°41' W 074°05'0 0.0
2015-Jan-31 19:33N 40°41' W 074°05'0 0.0
2015-Jan-31 18:33N 40°41' W 074°05'0 0.0
2015-Jan-31 17:33N 40°41' W 074°05'0 0.0
2015-Jan-31 16:33N 40°41' W 074°05'0 0.0
2015-Jan-31 15:33N 40°41' W 074°05'0 0.0
2015-Jan-31 14:33N 40°41' W 074°05'0 0.0
2015-Jan-31 13:28N 40°41' W 074°05'0 0.0
2015-Jan-31 12:33N 40°41' W 074°05'0 0.0
2015-Jan-31 11:33N 40°41' W 074°05'0 0.0
2015-Jan-31 10:33N 40°41' W 074°05'0 0.0
2015-Jan-31 09:33N 40°41' W 074°05'0 0.0
2015-Jan-31 08:33N 40°41' W 074°05'0 0.0
2015-Jan-31 07:31N 40°41' W 074°05'0 0.0
2015-Jan-31 06:33N 40°41' W 074°05'0 0.0
2015-Jan-31 05:28N 40°41' W 074°05'0 0.0
2015-Jan-31 04:32N 40°41' W 074°05'0 0.0
2015-Jan-31 01:06N 40°41' W 074°05'0 0.0
2015-Jan-31 00:31N 40°41' W 074°05'0 0.0
2015-Jan-30 23:22N 40°41' W 074°05'0 0.2
2015-Jan-30 22:19N 40°41' W 074°04'3 4.5
2015-Jan-30 21:32N 40°40' W 073°60'3 2.6
2015-Jan-30 20:33N 40°40' W 074°03'1 1.3
2015-Jan-30 19:27N 40°41' W 074°05'0 0.0
2015-Jan-30 18:31N 40°41' W 074°05'0 0.0
2015-Jan-30 17:28N 40°41' W 074°05'0 0.0
2015-Jan-30 16:29N 40°41' W 074°05'0 0.0
2015-Jan-30 15:22N 40°41' W 074°05'0 0.0
2015-Jan-30 14:13N 40°41' W 074°05'0 0.0
2015-Jan-30 13:25N 40°41' W 074°05'0 0.0
2015-Jan-30 12:33N 40°41' W 074°05'0 0.0
2015-Jan-30 11:30N 40°41' W 074°05'0 0.0
2015-Jan-30 09:28N 40°41' W 074°05'0 0.0
2015-Jan-30 08:33N 40°41' W 074°05'0 0.0
2015-Jan-30 07:23N 40°41' W 074°05'0 0.0
2015-Jan-30 04:26N 40°41' W 074°05'0 0.0
2015-Jan-30 03:33N 40°41' W 074°05'0 0.0
2015-Jan-30 02:33N 40°41' W 074°05'0 0.0
2015-Jan-30 01:30N 40°41' W 074°05'0 0.0
2015-Jan-30 00:33N 40°41' W 074°05'0 0.0
2015-Jan-29 23:29N 40°41' W 074°05'1 1.4
2015-Jan-29 22:33N 40°41' W 074°03'6 5.4
2015-Jan-29 21:26N 40°44' W 073°57'1 0.7
2015-Jan-29 20:23N 40°44' W 073°56'4 4.4
2015-Jan-29 19:33N 40°42' W 074°00'3 3.4
2015-Jan-29 18:33N 40°41' W 074°04'0 0.1
2015-Jan-29 17:33N 40°41' W 074°04'4 4.3
2015-Jan-29 16:33N 40°42' W 073°59'2 2.5
2015-Jan-29 15:33N 40°44' W 073°57'2 1.6
2015-Jan-29 14:33N 40°43' W 073°58'5 4.8
2015-Jan-29 13:33N 40°41' W 074°04'1 1.0
2015-Jan-29 12:33N 40°41' W 074°05'0 0.0
2015-Jan-29 11:33N 40°41' W 074°05'0 0.0
2015-Jan-29 10:33N 40°41' W 074°05'0 0.0
2015-Jan-29 09:33N 40°41' W 074°05'0 0.0
2015-Jan-29 08:33N 40°41' W 074°05'0 0.0
2015-Jan-29 07:30N 40°41' W 074°05'0 0.0
2015-Jan-29 06:33N 40°41' W 074°05'0 0.0
2015-Jan-29 05:31N 40°41' W 074°05'0 0.0
2015-Jan-29 04:33N 40°41' W 074°05'0 0.0
2015-Jan-29 03:33N 40°41' W 074°05'0 0.0
2015-Jan-29 02:33N 40°41' W 074°05'0 0.0
2015-Jan-29 01:33N 40°41' W 074°05'0 0.0
2015-Jan-29 00:27N 40°41' W 074°05'0 0.0
2015-Jan-28 23:22N 40°41' W 074°05'0 0.0
2015-Jan-28 22:33N 40°41' W 074°05'0 0.0
2015-Jan-28 21:33N 40°41' W 074°05'0 0.0
2015-Jan-28 20:33N 40°41' W 074°05'0 0.0
2015-Jan-28 19:33N 40°41' W 074°05'0 0.0
2015-Jan-28 18:33N 40°41' W 074°05'0 0.0
2015-Jan-28 17:33N 40°41' W 074°05'0 0.0
2015-Jan-28 16:32N 40°41' W 074°05'0 0.0
2015-Jan-28 15:32N 40°41' W 074°05'0 0.2
2015-Jan-28 14:33N 40°41' W 074°04'0 0.1
2015-Jan-28 13:33N 40°41' W 074°04'0 0.3
2015-Jan-28 12:32N 40°41' W 074°05'0 0.0
2015-Jan-28 11:33N 40°41' W 074°05'0 0.0
2015-Jan-28 10:29N 40°41' W 074°05'0 0.0
2015-Jan-28 09:30N 40°41' W 074°05'0 0.0
2015-Jan-28 08:25N 40°41' W 074°05'0 0.0
2015-Jan-28 07:32N 40°41' W 074°05'0 0.0
2015-Jan-28 06:32N 40°41' W 074°05'0 0.0
2015-Jan-28 03:33N 40°41' W 074°05'0 0.0
2015-Jan-28 02:33N 40°41' W 074°05'0 0.0
2015-Jan-28 01:33N 40°41' W 074°05'0 0.0
2015-Jan-28 00:33N 40°41' W 074°05'0 0.0
2015-Jan-27 23:31N 40°41' W 074°05'0 0.0
2015-Jan-27 22:33N 40°41' W 074°05'0 0.0
2015-Jan-27 21:32N 40°41' W 074°05'0 0.0
2015-Jan-27 20:32N 40°41' W 074°05'0 0.0
2015-Jan-27 19:22N 40°41' W 074°05'0 0.0
2015-Jan-27 18:32N 40°41' W 074°05'0 0.0
2015-Jan-27 16:27N 40°41' W 074°05'0 0.0
2015-Jan-27 15:11N 40°41' W 074°05'0 0.0
2015-Jan-27 14:32N 40°41' W 074°05'0 0.0
2015-Jan-27 13:30N 40°41' W 074°05'0 0.0
2015-Jan-27 12:33N 40°41' W 074°05'0 0.0
2015-Jan-27 11:33N 40°41' W 074°05'0 0.0
2015-Jan-27 10:30N 40°41' W 074°05'0 0.0
2015-Jan-27 09:29N 40°41' W 074°05'0 0.0
2015-Jan-27 08:33N 40°41' W 074°05'0 0.0
2015-Jan-27 07:33N 40°41' W 074°05'0 0.0
2015-Jan-27 06:33N 40°41' W 074°05'0 0.0
2015-Jan-27 05:30N 40°41' W 074°05'0 0.0
2015-Jan-27 04:25N 40°41' W 074°05'0 0.0
2015-Jan-27 03:32N 40°41' W 074°05'0 0.0
2015-Jan-27 02:28N 40°41' W 074°05'0 0.0
2015-Jan-27 01:31N 40°41' W 074°05'0 0.0
2015-Jan-27 00:33N 40°41' W 074°05'0 0.0
2015-Jan-26 23:28N 40°41' W 074°05'0 0.0
2015-Jan-26 22:33N 40°41' W 074°05'0 0.0
2015-Jan-26 21:33N 40°41' W 074°05'0 0.0
2015-Jan-26 20:33N 40°41' W 074°05'0 0.0
2015-Jan-26 19:33N 40°41' W 074°05'0 0.0
2015-Jan-26 18:29N 40°41' W 074°05'0 0.0
2015-Jan-26 17:33N 40°41' W 074°05'0 0.0
2015-Jan-26 16:33N 40°41' W 074°05'0 0.0
2015-Jan-26 15:33N 40°41' W 074°05'0 0.0
2015-Jan-26 14:31N 40°41' W 074°05'0 0.0
2015-Jan-26 13:31N 40°41' W 074°05'0 0.0
2015-Jan-26 12:33N 40°41' W 074°05'0 0.0
2015-Jan-26 11:33N 40°41' W 074°05'0 0.0
2015-Jan-26 10:33N 40°41' W 074°05'0 0.0
2015-Jan-26 09:31N 40°41' W 074°05'0 0.0
2015-Jan-26 08:30N 40°41' W 074°05'0 0.0
2015-Jan-26 04:03N 40°41' W 074°05'0 0.0
2015-Jan-26 03:33N 40°41' W 074°05'0 0.0
2015-Jan-26 02:33N 40°41' W 074°05'0 0.0
2015-Jan-26 01:32N 40°41' W 074°05'0 0.0
2015-Jan-26 00:33N 40°41' W 074°05'0 0.0
2015-Jan-25 23:32N 40°41' W 074°05'0 0.0
2015-Jan-25 22:32N 40°41' W 074°05'0 0.0
2015-Jan-25 21:32N 40°41' W 074°05'0 0.0
2015-Jan-25 20:33N 40°41' W 074°05'0 0.0
2015-Jan-25 19:33N 40°41' W 074°05'0 0.0
2015-Jan-25 18:33N 40°41' W 074°05'0 0.0
2015-Jan-25 17:31N 40°41' W 074°05'0 0.0
2015-Jan-25 16:32N 40°41' W 074°05'0 0.0
2015-Jan-25 14:22N 40°41' W 074°05'0 0.0
2015-Jan-25 13:33N 40°41' W 074°05'0 0.0
2015-Jan-25 12:33N 40°41' W 074°05'0 0.0
2015-Jan-25 11:33N 40°41' W 074°05'0 0.0
2015-Jan-25 10:33N 40°41' W 074°05'0 0.0
2015-Jan-25 09:33N 40°41' W 074°05'0 0.0
2015-Jan-25 08:33N 40°41' W 074°05'0 0.0
2015-Jan-25 07:33N 40°41' W 074°05'0 0.0
2015-Jan-25 06:33N 40°41' W 074°05'0 0.0
2015-Jan-25 05:33N 40°41' W 074°05'0 0.0
2015-Jan-25 03:29N 40°41' W 074°05'0 0.0
2015-Jan-25 02:32N 40°41' W 074°05'0 0.0
2015-Jan-25 01:32N 40°41' W 074°05'0 0.0
2015-Jan-25 00:33N 40°41' W 074°05'0 0.0
2015-Jan-24 23:33N 40°41' W 074°05'0 0.0
2015-Jan-24 22:31N 40°41' W 074°05'0 0.0
2015-Jan-24 21:33N 40°41' W 074°05'0 0.0
2015-Jan-24 20:33N 40°41' W 074°05'0 0.0
2015-Jan-24 19:33N 40°41' W 074°05'0 0.0
2015-Jan-24 18:33N 40°41' W 074°05'0 0.0
2015-Jan-24 17:34N 40°41' W 074°05'0 0.0
2015-Jan-24 16:33N 40°41' W 074°05'0 0.0
2015-Jan-24 15:33N 40°41' W 074°05'0 0.0
2015-Jan-24 14:25N 40°41' W 074°05'0 0.0
2015-Jan-24 13:29N 40°41' W 074°05'0 0.0
2015-Jan-24 12:33N 40°41' W 074°05'0 0.0
2015-Jan-24 11:15N 40°41' W 074°05'0 0.0
2015-Jan-24 10:17N 40°41' W 074°05'0 0.0
2015-Jan-24 08:33N 40°41' W 074°05'0 0.0
2015-Jan-24 07:33N 40°41' W 074°05'0 0.0
2015-Jan-24 06:33N 40°41' W 074°05'0 0.0
2015-Jan-24 05:33N 40°41' W 074°05'0 0.0
2015-Jan-24 04:33N 40°41' W 074°05'0 0.0
2015-Jan-24 03:33N 40°41' W 074°05'0 0.0
2015-Jan-24 02:33N 40°41' W 074°05'0 0.0
2015-Jan-24 01:33N 40°41' W 074°05'0 0.0
2015-Jan-24 00:33N 40°41' W 074°05'0 0.0
2015-Jan-23 23:33N 40°41' W 074°05'0 0.0
2015-Jan-23 22:33N 40°41' W 074°05'0 0.0
2015-Jan-23 21:33N 40°41' W 074°05'0 0.0
2015-Jan-23 20:33N 40°41' W 074°05'4 4.0
2015-Jan-23 19:33N 40°42' W 073°60'2 0.4
2015-Jan-23 14:33N 40°44' W 073°58'6 5.8
2015-Jan-23 13:33N 40°41' W 074°05'0 0.0
2015-Jan-23 12:33N 40°41' W 074°05'0 0.0
2015-Jan-23 11:33N 40°41' W 074°05'0 0.0
2015-Jan-23 10:33N 40°41' W 074°05'0 0.0
2015-Jan-23 09:33N 40°41' W 074°05'0 0.0
2015-Jan-23 08:33N 40°41' W 074°05'0 0.0
2015-Jan-23 07:33N 40°41' W 074°05'0 0.1
2015-Jan-23 06:32N 40°41' W 074°05'3 2.6
2015-Jan-23 05:33N 40°39' W 074°03'6 4.6
2015-Jan-23 04:19N 40°34' W 073°59'11 5.4
2015-Jan-23 02:18N 40°37' W 073°45'8 3.9
2015-Jan-23 00:10N 40°34' W 073°56'5 7.5
2015-Jan-22 23:30N 40°35' W 074°02'6 5.9
2015-Jan-22 22:33N 40°41' W 074°01'0 0.0
2015-Jan-22 21:33N 40°41' W 074°01'0 0.0
2015-Jan-22 20:33N 40°41' W 074°01'0 0.0
2015-Jan-22 19:33N 40°41' W 074°01'0 0.0
2015-Jan-22 18:33N 40°41' W 074°01'0 0.0
2015-Jan-22 17:33N 40°41' W 074°01'0 0.0
2015-Jan-22 16:33N 40°41' W 074°01'0 0.0
2015-Jan-22 15:33N 40°41' W 074°01'0 0.0
2015-Jan-22 14:33N 40°41' W 074°01'1 1.4
2015-Jan-22 13:33N 40°40' W 074°00'  
Track history (hours):
 
Tides and Currents Weather Stations Pressure Air Temp Water Temp Dewpoint Dewpoint Depression Visibility Wind Speed Wind Dir Waves Ship Positions

Cheyenne

Owner: DMC MARINE, LLC, HILLSIDE, NJ. More information available from US FCC via Universal Licensing System and Coast Guard Vessel Documentation Center.

Last reported at 2015-Feb-01 12:33 UTC. Time now 2015-Feb-01 13:15 UTC.
Position N 40°41' W 074°04'.

Length 29 m; draft 4 m.

Type: Towing. MMSI: 367418570.

Date/timePositionNaut miles runAvg speedWind from/ knotsBaromVisibWave heightAir tempDewpointWater temp
2015-Feb-01 12:33N 40°41' W 074°04'3 3.1
2015-Feb-01 11:33N 40°40' W 073°60'1 0.9
2015-Feb-01 10:33N 40°40' W 074°01'3 3.2
2015-Feb-01 09:33N 40°41' W 074°05'0 0.0
2015-Feb-01 08:31N 40°41' W 074°05'0 0.0
2015-Feb-01 07:30N 40°41' W 074°05'0 0.0
2015-Feb-01 06:33N 40°41' W 074°05'0 0.0
2015-Feb-01 05:33N 40°41' W 074°05'0 0.0
2015-Feb-01 04:33N 40°41' W 074°05'0 0.0
2015-Feb-01 03:33N 40°41' W 074°05'0 0.0
2015-Feb-01 02:33N 40°41' W 074°05'0 0.0
2015-Feb-01 01:27N 40°41' W 074°05'0 0.0
2015-Feb-01 00:33N 40°41' W 074°05'0 0.0
2015-Jan-31 23:33N 40°41' W 074°05'0 0.0
2015-Jan-31 22:33N 40°41' W 074°05'0 0.0
2015-Jan-31 21:33N 40°41' W 074°05'0 0.0
2015-Jan-31 20:33N 40°41' W 074°05'0 0.0
2015-Jan-31 19:33N 40°41' W 074°05'0 0.0
2015-Jan-31 18:33N 40°41' W 074°05'0 0.0
2015-Jan-31 17:33N 40°41' W 074°05'0 0.0
2015-Jan-31 16:33N 40°41' W 074°05'0 0.0
2015-Jan-31 15:33N 40°41' W 074°05'0 0.0
2015-Jan-31 14:33N 40°41' W 074°05'0 0.0
2015-Jan-31 13:28N 40°41' W 074°05'0 0.0
2015-Jan-31 12:33N 40°41' W 074°05'0 0.0
2015-Jan-31 11:33N 40°41' W 074°05'0 0.0
2015-Jan-31 10:33N 40°41' W 074°05'0 0.0
2015-Jan-31 09:33N 40°41' W 074°05'0 0.0
2015-Jan-31 08:33N 40°41' W 074°05'0 0.0
2015-Jan-31 07:31N 40°41' W 074°05'0 0.0
2015-Jan-31 06:33N 40°41' W 074°05'0 0.0
2015-Jan-31 05:28N 40°41' W 074°05'0 0.0
2015-Jan-31 04:32N 40°41' W 074°05'0 0.0
2015-Jan-31 01:06N 40°41' W 074°05'0 0.0
2015-Jan-31 00:31N 40°41' W 074°05'0 0.0
2015-Jan-30 23:22N 40°41' W 074°05'0 0.2
2015-Jan-30 22:19N 40°41' W 074°04'3 4.5
2015-Jan-30 21:32N 40°40' W 073°60'3 2.6
2015-Jan-30 20:33N 40°40' W 074°03'1 1.3
2015-Jan-30 19:27N 40°41' W 074°05'0 0.0
2015-Jan-30 18:31N 40°41' W 074°05'0 0.0
2015-Jan-30 17:28N 40°41' W 074°05'0 0.0
2015-Jan-30 16:29N 40°41' W 074°05'0 0.0
2015-Jan-30 15:22N 40°41' W 074°05'0 0.0
2015-Jan-30 14:13N 40°41' W 074°05'0 0.0
2015-Jan-30 13:25N 40°41' W 074°05'0 0.0
2015-Jan-30 12:33N 40°41' W 074°05'0 0.0
2015-Jan-30 11:30N 40°41' W 074°05'0 0.0
2015-Jan-30 09:28N 40°41' W 074°05'0 0.0
2015-Jan-30 08:33N 40°41' W 074°05'0 0.0
2015-Jan-30 07:23N 40°41' W 074°05'0 0.0
2015-Jan-30 04:26N 40°41' W 074°05'0 0.0
2015-Jan-30 03:33N 40°41' W 074°05'0 0.0
2015-Jan-30 02:33N 40°41' W 074°05'0 0.0
2015-Jan-30 01:30N 40°41' W 074°05'0 0.0
2015-Jan-30 00:33N 40°41' W 074°05'0 0.0
2015-Jan-29 23:29N 40°41' W 074°05'1 1.4
2015-Jan-29 22:33N 40°41' W 074°03'6 5.4
2015-Jan-29 21:26N 40°44' W 073°57'1 0.7
2015-Jan-29 20:23N 40°44' W 073°56'4 4.4
2015-Jan-29 19:33N 40°42' W 074°00'3 3.4
2015-Jan-29 18:33N 40°41' W 074°04'0 0.1
2015-Jan-29 17:33N 40°41' W 074°04'4 4.3
2015-Jan-29 16:33N 40°42' W 073°59'2 2.5
2015-Jan-29 15:33N 40°44' W 073°57'2 1.6
2015-Jan-29 14:33N 40°43' W 073°58'5 4.8
2015-Jan-29 13:33N 40°41' W 074°04'1 1.0
2015-Jan-29 12:33N 40°41' W 074°05'0 0.0
2015-Jan-29 11:33N 40°41' W 074°05'0 0.0
2015-Jan-29 10:33N 40°41' W 074°05'0 0.0
2015-Jan-29 09:33N 40°41' W 074°05'0 0.0
2015-Jan-29 08:33N 40°41' W 074°05'0 0.0
2015-Jan-29 07:30N 40°41' W 074°05'0 0.0
2015-Jan-29 06:33N 40°41' W 074°05'0 0.0
2015-Jan-29 05:31N 40°41' W 074°05'0 0.0
2015-Jan-29 04:33N 40°41' W 074°05'0 0.0
2015-Jan-29 03:33N 40°41' W 074°05'0 0.0
2015-Jan-29 02:33N 40°41' W 074°05'0 0.0
2015-Jan-29 01:33N 40°41' W 074°05'0 0.0
2015-Jan-29 00:27N 40°41' W 074°05'0 0.0
2015-Jan-28 23:22N 40°41' W 074°05'0 0.0
2015-Jan-28 22:33N 40°41' W 074°05'0 0.0
2015-Jan-28 21:33N 40°41' W 074°05'0 0.0
2015-Jan-28 20:33N 40°41' W 074°05'0 0.0
2015-Jan-28 19:33N 40°41' W 074°05'0 0.0
2015-Jan-28 18:33N 40°41' W 074°05'0 0.0
2015-Jan-28 17:33N 40°41' W 074°05'0 0.0
2015-Jan-28 16:32N 40°41' W 074°05'0 0.0
2015-Jan-28 15:32N 40°41' W 074°05'0 0.2
2015-Jan-28 14:33N 40°41' W 074°04'0 0.1
2015-Jan-28 13:33N 40°41' W 074°04'0 0.3
2015-Jan-28 12:32N 40°41' W 074°05'0 0.0
2015-Jan-28 11:33N 40°41' W 074°05'0 0.0
2015-Jan-28 10:29N 40°41' W 074°05'0 0.0
2015-Jan-28 09:30N 40°41' W 074°05'0 0.0
2015-Jan-28 08:25N 40°41' W 074°05'0 0.0
2015-Jan-28 07:32N 40°41' W 074°05'0 0.0
2015-Jan-28 06:32N 40°41' W 074°05'0 0.0
2015-Jan-28 03:33N 40°41' W 074°05'0 0.0
2015-Jan-28 02:33N 40°41' W 074°05'0 0.0
2015-Jan-28 01:33N 40°41' W 074°05'0 0.0
2015-Jan-28 00:33N 40°41' W 074°05'0 0.0
2015-Jan-27 23:31N 40°41' W 074°05'0 0.0
2015-Jan-27 22:33N 40°41' W 074°05'0 0.0
2015-Jan-27 21:32N 40°41' W 074°05'0 0.0
2015-Jan-27 20:32N 40°41' W 074°05'0 0.0
2015-Jan-27 19:22N 40°41' W 074°05'0 0.0
2015-Jan-27 18:32N 40°41' W 074°05'0 0.0
2015-Jan-27 16:27N 40°41' W 074°05'0 0.0
2015-Jan-27 15:11N 40°41' W 074°05'0 0.0
2015-Jan-27 14:32N 40°41' W 074°05'0 0.0
2015-Jan-27 13:30N 40°41' W 074°05'0 0.0
2015-Jan-27 12:33N 40°41' W 074°05'0 0.0
2015-Jan-27 11:33N 40°41' W 074°05'0 0.0
2015-Jan-27 10:30N 40°41' W 074°05'0 0.0
2015-Jan-27 09:29N 40°41' W 074°05'0 0.0
2015-Jan-27 08:33N 40°41' W 074°05'0 0.0
2015-Jan-27 07:33N 40°41' W 074°05'0 0.0
2015-Jan-27 06:33N 40°41' W 074°05'0 0.0
2015-Jan-27 05:30N 40°41' W 074°05'0 0.0
2015-Jan-27 04:25N 40°41' W 074°05'0 0.0
2015-Jan-27 03:32N 40°41' W 074°05'0 0.0
2015-Jan-27 02:28N 40°41' W 074°05'0 0.0
2015-Jan-27 01:31N 40°41' W 074°05'0 0.0
2015-Jan-27 00:33N 40°41' W 074°05'0 0.0
2015-Jan-26 23:28N 40°41' W 074°05'0 0.0
2015-Jan-26 22:33N 40°41' W 074°05'0 0.0
2015-Jan-26 21:33N 40°41' W 074°05'0 0.0
2015-Jan-26 20:33N 40°41' W 074°05'0 0.0
2015-Jan-26 19:33N 40°41' W 074°05'0 0.0
2015-Jan-26 18:29N 40°41' W 074°05'0 0.0
2015-Jan-26 17:33N 40°41' W 074°05'0 0.0
2015-Jan-26 16:33N 40°41' W 074°05'0 0.0
2015-Jan-26 15:33N 40°41' W 074°05'0 0.0
2015-Jan-26 14:31N 40°41' W 074°05'0 0.0
2015-Jan-26 13:31N 40°41' W 074°05'0 0.0
2015-Jan-26 12:33N 40°41' W 074°05'0 0.0
2015-Jan-26 11:33N 40°41' W 074°05'0 0.0
2015-Jan-26 10:33N 40°41' W 074°05'0 0.0
2015-Jan-26 09:31N 40°41' W 074°05'0 0.0
2015-Jan-26 08:30N 40°41' W 074°05'0 0.0
2015-Jan-26 04:03N 40°41' W 074°05'0 0.0
2015-Jan-26 03:33N 40°41' W 074°05'0 0.0
2015-Jan-26 02:33N 40°41' W 074°05'0 0.0
2015-Jan-26 01:32N 40°41' W 074°05'0 0.0
2015-Jan-26 00:33N 40°41' W 074°05'0 0.0
2015-Jan-25 23:32N 40°41' W 074°05'0 0.0
2015-Jan-25 22:32N 40°41' W 074°05'0 0.0
2015-Jan-25 21:32N 40°41' W 074°05'0 0.0
2015-Jan-25 20:33N 40°41' W 074°05'0 0.0
2015-Jan-25 19:33N 40°41' W 074°05'0 0.0
2015-Jan-25 18:33N 40°41' W 074°05'0 0.0
2015-Jan-25 17:31N 40°41' W 074°05'0 0.0
2015-Jan-25 16:32N 40°41' W 074°05'0 0.0
2015-Jan-25 14:22N 40°41' W 074°05'0 0.0
2015-Jan-25 13:33N 40°41' W 074°05'0 0.0
2015-Jan-25 12:33N 40°41' W 074°05'0 0.0
2015-Jan-25 11:33N 40°41' W 074°05'0 0.0
2015-Jan-25 10:33N 40°41' W 074°05'0 0.0
2015-Jan-25 09:33N 40°41' W 074°05'0 0.0
2015-Jan-25 08:33N 40°41' W 074°05'0 0.0
2015-Jan-25 07:33N 40°41' W 074°05'0 0.0
2015-Jan-25 06:33N 40°41' W 074°05'0 0.0
2015-Jan-25 05:33N 40°41' W 074°05'0 0.0
2015-Jan-25 03:29N 40°41' W 074°05'0 0.0
2015-Jan-25 02:32N 40°41' W 074°05'0 0.0
2015-Jan-25 01:32N 40°41' W 074°05'0 0.0
2015-Jan-25 00:33N 40°41' W 074°05'0 0.0
2015-Jan-24 23:33N 40°41' W 074°05'0 0.0
2015-Jan-24 22:31N 40°41' W 074°05'0 0.0
2015-Jan-24 21:33N 40°41' W 074°05'0 0.0
2015-Jan-24 20:33N 40°41' W 074°05'0 0.0
2015-Jan-24 19:33N 40°41' W 074°05'0 0.0
2015-Jan-24 18:33N 40°41' W 074°05'0 0.0
2015-Jan-24 17:34N 40°41' W 074°05'0 0.0
2015-Jan-24 16:33N 40°41' W 074°05'0 0.0
2015-Jan-24 15:33N 40°41' W 074°05'0 0.0
2015-Jan-24 14:25N 40°41' W 074°05'0 0.0
2015-Jan-24 13:29N 40°41' W 074°05'0 0.0
2015-Jan-24 12:33N 40°41' W 074°05'0 0.0
2015-Jan-24 11:15N 40°41' W 074°05'0 0.0
2015-Jan-24 10:17N 40°41' W 074°05'0 0.0
2015-Jan-24 08:33N 40°41' W 074°05'0 0.0
2015-Jan-24 07:33N 40°41' W 074°05'0 0.0
2015-Jan-24 06:33N 40°41' W 074°05'0 0.0
2015-Jan-24 05:33N 40°41' W 074°05'0 0.0
2015-Jan-24 04:33N 40°41' W 074°05'0 0.0
2015-Jan-24 03:33N 40°41' W 074°05'0 0.0
2015-Jan-24 02:33N 40°41' W 074°05'0 0.0
2015-Jan-24 01:33N 40°41' W 074°05'0 0.0
2015-Jan-24 00:33N 40°41' W 074°05'0 0.0
2015-Jan-23 23:33N 40°41' W 074°05'0 0.0
2015-Jan-23 22:33N 40°41' W 074°05'0 0.0
2015-Jan-23 21:33N 40°41' W 074°05'0 0.0
2015-Jan-23 20:33N 40°41' W 074°05'4 4.0
2015-Jan-23 19:33N 40°42' W 073°60'2 0.4
2015-Jan-23 14:33N 40°44' W 073°58'6 5.8
2015-Jan-23 13:33N 40°41' W 074°05'0 0.0
2015-Jan-23 12:33N 40°41' W 074°05'0 0.0
2015-Jan-23 11:33N 40°41' W 074°05'0 0.0
2015-Jan-23 10:33N 40°41' W 074°05'0 0.0
2015-Jan-23 09:33N 40°41' W 074°05'0 0.0
2015-Jan-23 08:33N 40°41' W 074°05'0 0.0
2015-Jan-23 07:33N 40°41' W 074°05'0 0.1
2015-Jan-23 06:32N 40°41' W 074°05'3 2.6
2015-Jan-23 05:33N 40°39' W 074°03'6 4.6
2015-Jan-23 04:19N 40°34' W 073°59'11 5.4
2015-Jan-23 02:18N 40°37' W 073°45'8 3.9
2015-Jan-23 00:10N 40°34' W 073°56'5 7.5
2015-Jan-22 23:30N 40°35' W 074°02'6 5.9
2015-Jan-22 22:33N 40°41' W 074°01'0 0.0
2015-Jan-22 21:33N 40°41' W 074°01'0 0.0
2015-Jan-22 20:33N 40°41' W 074°01'0 0.0
2015-Jan-22 19:33N 40°41' W 074°01'0 0.0
2015-Jan-22 18:33N 40°41' W 074°01'0 0.0
2015-Jan-22 17:33N 40°41' W 074°01'0 0.0
2015-Jan-22 16:33N 40°41' W 074°01'0 0.0
2015-Jan-22 15:33N 40°41' W 074°01'0 0.0
2015-Jan-22 14:33N 40°41' W 074°01'1 1.4
2015-Jan-22 13:33N 40°40' W 074°00'  

Dump ship's entire track history